createdAt,value
2024-01-24T00:02:13.352Z,9.55
2024-01-24T00:04:40.103Z,6.93
2024-01-24T00:07:06.879Z,10.20
2024-01-24T00:09:34.617Z,9.38
2024-01-24T00:12:01.727Z,9.25
2024-01-24T00:14:28.901Z,6.90
2024-01-24T00:16:55.650Z,8.50
2024-01-24T00:19:22.423Z,6.95
2024-01-24T00:21:49.450Z,7.68
2024-01-24T00:24:16.310Z,6.63
2024-01-24T00:26:42.988Z,6.70
2024-01-24T00:29:09.915Z,6.07
2024-01-24T00:31:36.645Z,7.15
2024-01-24T00:34:03.500Z,7.03
2024-01-24T00:36:30.350Z,7.38
2024-01-24T00:38:57.093Z,6.63
2024-01-24T00:41:23.792Z,7.70
2024-01-24T00:43:50.515Z,7.32
2024-01-24T00:46:17.196Z,7.13
2024-01-24T00:48:44.017Z,6.72
2024-01-24T00:51:10.771Z,6.47
2024-01-24T00:53:38.899Z,7.28
2024-01-24T00:56:06.129Z,7.07
2024-01-24T00:58:33.191Z,7.28
2024-01-24T01:01:00.125Z,8.20
2024-01-24T01:03:27.121Z,6.97
2024-01-24T01:05:54.006Z,7.88
2024-01-24T01:08:20.983Z,8.80
2024-01-24T01:10:48.301Z,7.07
2024-01-24T01:13:15.168Z,7.18
2024-01-24T01:15:42.483Z,7.88
2024-01-24T01:18:09.808Z,6.97
2024-01-24T01:20:36.558Z,7.13
2024-01-24T01:23:04.515Z,6.68
2024-01-24T01:25:31.212Z,7.25
2024-01-24T01:27:58.060Z,6.53
2024-01-24T01:30:25.097Z,5.78
2024-01-24T01:32:52.265Z,5.80
2024-01-24T01:35:19.194Z,5.47
2024-01-24T01:37:45.922Z,5.40
2024-01-24T01:40:12.715Z,5.30
2024-01-24T01:42:46.323Z,4.25
2024-01-24T01:45:14.498Z,4.28
2024-01-24T01:47:41.824Z,4.85
2024-01-24T01:50:11.616Z,4.05
2024-01-24T01:52:39.940Z,4.40
2024-01-24T01:55:08.077Z,4.30
2024-01-24T01:57:35.242Z,3.85
2024-01-24T02:00:02.814Z,4.10
2024-01-24T02:02:29.707Z,3.90
2024-01-24T02:04:56.445Z,3.30
2024-01-24T02:07:23.426Z,3.67
2024-01-24T02:09:50.395Z,2.38
2024-01-24T02:12:17.176Z,3.22
2024-01-24T02:14:43.944Z,3.03
2024-01-24T02:17:10.662Z,2.67
2024-01-24T02:19:37.955Z,2.63
2024-01-24T02:22:04.814Z,2.88
2024-01-24T02:24:31.684Z,2.50
2024-01-24T02:26:58.420Z,2.17
2024-01-24T02:29:25.188Z,1.83
2024-01-24T02:31:51.954Z,1.70
2024-01-24T02:34:18.959Z,1.83
2024-01-24T02:36:46.331Z,1.60
2024-01-24T02:39:13.135Z,1.80
2024-01-24T02:41:41.624Z,1.35
2024-01-24T02:44:08.494Z,1.50
2024-01-24T02:46:35.407Z,0.90
2024-01-24T02:49:02.419Z,0.80
2024-01-24T02:51:29.352Z,0.85
2024-01-24T02:53:56.098Z,0.70
2024-01-24T02:56:22.941Z,0.63
2024-01-24T02:58:49.644Z,0.77
2024-01-24T03:01:17.255Z,0.40
2024-01-24T03:03:47.200Z,0.47
2024-01-24T03:06:14.309Z,0.60
2024-01-24T03:09:08.442Z,0.50
2024-01-24T03:11:35.224Z,0.30
2024-01-24T03:14:02.356Z,0.50
2024-01-24T03:16:29.583Z,0.40
2024-01-24T03:18:56.315Z,0.65
2024-01-24T03:21:24.097Z,0.60
2024-01-24T03:23:50.783Z,0.38
2024-01-24T03:26:17.729Z,0.40
2024-01-24T03:28:44.569Z,0.32
2024-01-24T03:31:11.607Z,0.73
2024-01-24T03:33:38.792Z,0.40
2024-01-24T03:36:05.727Z,0.45
2024-01-24T03:38:32.455Z,0.55
2024-01-24T03:40:59.220Z,0.52
2024-01-24T03:43:25.965Z,0.25
2024-01-24T03:45:52.752Z,0.65
2024-01-24T03:48:19.487Z,0.73
2024-01-24T03:50:46.261Z,0.43
2024-01-24T03:53:13.005Z,0.60
2024-01-24T03:55:39.726Z,0.70
2024-01-24T03:58:06.385Z,0.57
2024-01-24T04:00:33.552Z,0.60
2024-01-24T04:03:00.249Z,0.77
2024-01-24T04:05:27.075Z,0.90
2024-01-24T04:07:54.099Z,0.80
2024-01-24T04:10:20.859Z,1.20
2024-01-24T04:12:47.754Z,1.23
2024-01-24T04:15:14.744Z,1.23
2024-01-24T04:17:41.600Z,0.88
2024-01-24T04:20:08.766Z,0.98
2024-01-24T04:22:36.303Z,0.77
2024-01-24T04:25:04.259Z,1.08
2024-01-24T04:27:31.038Z,1.30
2024-01-24T04:29:58.178Z,1.48
2024-01-24T04:32:25.537Z,1.35
2024-01-24T04:34:55.093Z,1.58
2024-01-24T04:37:22.774Z,1.40
2024-01-24T04:39:49.979Z,1.42
2024-01-24T04:42:17.366Z,1.63
2024-01-24T04:44:45.442Z,1.50
2024-01-24T04:47:14.665Z,1.55
2024-01-24T04:49:45.215Z,2.78
2024-01-24T04:52:13.225Z,1.52
2024-01-24T04:54:40.019Z,2.08
2024-01-24T04:57:06.882Z,1.60
2024-01-24T04:59:42.554Z,1.60
2024-01-24T05:02:16.493Z,1.55
2024-01-24T05:04:43.125Z,1.75
2024-01-24T05:07:09.879Z,1.58
2024-01-24T05:09:36.669Z,2.28
2024-01-24T05:12:03.557Z,1.60
2024-01-24T05:14:30.191Z,1.60
2024-01-24T05:16:56.797Z,2.00
2024-01-24T05:19:23.515Z,2.63
2024-01-24T05:21:50.180Z,1.63
2024-01-24T05:24:16.897Z,1.92
2024-01-24T05:26:44.834Z,2.05
2024-01-24T05:29:11.520Z,1.90
2024-01-24T05:31:39.510Z,2.80
2024-01-24T05:34:06.313Z,2.25
2024-01-24T05:36:33.089Z,2.30
2024-01-24T05:38:59.774Z,2.90
2024-01-24T05:41:26.963Z,3.00
2024-01-24T05:43:53.671Z,3.53
2024-01-24T05:46:20.348Z,3.25
2024-01-24T05:48:47.396Z,2.60
2024-01-24T05:51:14.117Z,2.75
2024-01-24T05:53:42.613Z,2.55
2024-01-24T05:56:09.370Z,2.75
2024-01-24T05:58:38.121Z,2.92
2024-01-24T06:01:06.720Z,3.28
2024-01-24T06:03:36.685Z,3.20
2024-01-24T06:06:03.738Z,2.30
2024-01-24T06:08:32.488Z,1.98
2024-01-24T06:10:59.762Z,3.15
2024-01-24T06:13:26.650Z,2.03
2024-01-24T06:15:53.470Z,2.47
2024-01-24T06:18:20.613Z,2.53
2024-01-24T06:20:48.538Z,2.58
2024-01-24T06:23:16.176Z,2.33
2024-01-24T06:25:43.363Z,2.70
2024-01-24T06:28:10.439Z,2.88
2024-01-24T06:30:37.907Z,2.80
2024-01-24T06:33:04.836Z,2.60
2024-01-24T06:35:32.557Z,3.20
2024-01-24T06:37:59.564Z,3.65
2024-01-24T06:40:26.300Z,2.50
2024-01-24T06:42:52.999Z,3.83
2024-01-24T06:45:19.937Z,2.88
2024-01-24T06:47:46.845Z,3.38
2024-01-24T06:50:15.030Z,3.03
2024-01-24T06:52:42.035Z,3.55
2024-01-24T06:55:10.017Z,3.70
2024-01-24T06:57:37.075Z,4.13
2024-01-24T07:00:06.015Z,4.18
2024-01-24T07:02:33.246Z,3.13
2024-01-24T07:04:59.980Z,3.75
2024-01-24T07:07:26.738Z,4.18
2024-01-24T07:09:53.533Z,3.97
2024-01-24T07:12:21.688Z,3.55
2024-01-24T07:14:52.738Z,3.75
2024-01-24T07:17:20.410Z,4.40
2024-01-24T07:19:47.739Z,3.65
2024-01-24T07:22:15.173Z,3.80
2024-01-24T07:24:45.386Z,3.13
2024-01-24T07:27:12.274Z,4.78
2024-01-24T07:29:39.601Z,3.60
2024-01-24T07:32:06.954Z,3.55
2024-01-24T07:34:33.799Z,3.45
2024-01-24T07:37:00.761Z,3.88
2024-01-24T07:39:29.603Z,3.55
2024-01-24T07:41:57.126Z,3.42
2024-01-24T07:44:24.480Z,3.72
2024-01-24T07:46:51.362Z,3.55
2024-01-24T07:49:18.688Z,3.17
2024-01-24T07:51:47.998Z,3.65
2024-01-24T07:54:18.804Z,4.03
2024-01-24T07:56:45.847Z,4.30
2024-01-24T07:59:17.079Z,4.05
2024-01-24T08:01:47.998Z,4.43
2024-01-24T08:04:15.426Z,3.95
2024-01-24T08:06:42.685Z,4.18
2024-01-24T08:09:11.233Z,3.67
2024-01-24T08:11:40.797Z,3.50
2024-01-24T08:14:07.713Z,3.72
2024-01-24T08:16:35.014Z,4.68
2024-01-24T08:19:02.489Z,4.47
2024-01-24T08:21:29.629Z,4.43
2024-01-24T08:23:56.922Z,4.25
2024-01-24T08:26:23.897Z,4.82
2024-01-24T08:28:50.557Z,5.45
2024-01-24T08:31:17.252Z,3.42
2024-01-24T08:33:44.786Z,4.60
2024-01-24T08:36:12.455Z,3.97
2024-01-24T08:38:39.104Z,3.25
2024-01-24T08:41:05.781Z,2.65
2024-01-24T08:43:32.424Z,3.47
2024-01-24T08:45:59.140Z,3.72
2024-01-24T08:48:26.175Z,3.97
2024-01-24T08:50:53.342Z,4.07
2024-01-24T08:53:19.994Z,3.70
2024-01-24T08:55:46.889Z,3.65
2024-01-24T08:58:14.025Z,3.80
2024-01-24T09:00:41.191Z,4.03
2024-01-24T09:03:08.119Z,4.25
2024-01-24T09:05:34.901Z,4.53
2024-01-24T09:08:02.833Z,3.92
2024-01-24T09:10:29.784Z,2.90
2024-01-24T09:12:56.556Z,4.07
2024-01-24T09:15:24.022Z,3.85
2024-01-24T09:17:51.387Z,3.28
2024-01-24T09:20:18.176Z,3.95
2024-01-24T09:22:45.369Z,3.03
2024-01-24T09:25:13.264Z,4.38
2024-01-24T09:27:41.663Z,3.65
2024-01-24T09:30:08.836Z,3.60
2024-01-24T09:32:35.593Z,3.10
2024-01-24T09:35:02.534Z,3.83
2024-01-24T09:37:29.342Z,3.00
2024-01-24T09:39:56.914Z,3.17
2024-01-24T09:42:27.548Z,3.67
2024-01-24T09:44:59.264Z,2.47
2024-01-24T09:47:26.574Z,3.05
2024-01-24T09:49:53.574Z,3.55
2024-01-24T09:52:26.060Z,3.25
2024-01-24T09:55:01.203Z,3.30
2024-01-24T09:57:28.557Z,2.83
2024-01-24T09:59:55.797Z,3.78
2024-01-24T10:02:23.291Z,4.05
2024-01-24T10:04:52.832Z,2.50
2024-01-24T10:07:20.751Z,3.60
2024-01-24T10:09:49.026Z,3.88
2024-01-24T10:12:15.857Z,3.80
2024-01-24T10:14:42.551Z,2.92
2024-01-24T10:17:12.389Z,3.95
2024-01-24T10:19:39.524Z,3.13
2024-01-24T10:22:09.407Z,4.63
2024-01-24T10:24:37.991Z,3.88
2024-01-24T10:27:05.633Z,4.20
2024-01-24T10:29:32.437Z,3.97
2024-01-24T10:32:00.106Z,4.50
2024-01-24T10:34:28.925Z,3.60
2024-01-24T10:36:56.548Z,22.50
2024-01-24T10:39:27.716Z,15.07
2024-01-24T10:42:03.319Z,9.18
2024-01-24T10:44:35.584Z,7.65
2024-01-24T10:47:13.635Z,8.60
2024-01-24T10:49:41.233Z,11.95
2024-01-24T10:52:09.103Z,7.70
2024-01-24T10:54:38.640Z,7.80
2024-01-24T10:57:07.894Z,6.68
2024-01-24T10:59:39.000Z,6.38
2024-01-24T11:02:10.014Z,6.13
2024-01-24T11:04:38.550Z,4.30
2024-01-24T11:07:11.568Z,4.95
2024-01-24T11:10:15.259Z,5.38
2024-01-24T11:12:42.629Z,3.75
2024-01-24T11:15:14.982Z,3.75
2024-01-24T11:17:48.065Z,3.22
2024-01-24T11:20:21.415Z,4.05
2024-01-24T11:22:48.438Z,3.33
2024-01-24T11:25:16.437Z,3.47
2024-01-24T11:28:02.535Z,3.85
2024-01-24T11:30:30.421Z,3.55
2024-01-24T11:33:01.466Z,2.85
2024-01-24T11:35:40.033Z,3.63
2024-01-24T11:38:29.859Z,4.13
2024-01-24T11:41:00.873Z,3.65
2024-01-24T11:43:36.513Z,2.17
2024-01-24T11:46:07.405Z,3.10
2024-01-24T11:48:39.695Z,3.60
2024-01-24T11:51:12.326Z,3.45
2024-01-24T11:53:39.178Z,3.08
2024-01-24T11:56:10.293Z,3.38
2024-01-24T11:58:37.160Z,4.13
2024-01-24T12:01:05.759Z,4.68
2024-01-24T12:03:33.544Z,3.42
2024-01-24T12:06:01.206Z,4.47
2024-01-24T12:08:29.048Z,2.65
2024-01-24T12:10:56.157Z,3.40
2024-01-24T12:13:26.654Z,3.92
2024-01-24T12:15:56.271Z,3.80
2024-01-24T12:18:23.896Z,3.80
2024-01-24T12:20:56.769Z,4.20
2024-01-24T12:23:26.422Z,4.07
2024-01-24T12:25:54.812Z,3.10
2024-01-24T12:28:24.730Z,3.40
2024-01-24T12:30:54.426Z,3.28
2024-01-24T12:33:21.788Z,3.65
2024-01-24T12:35:50.545Z,3.67
2024-01-24T12:38:19.744Z,5.22
2024-01-24T12:40:54.128Z,3.15
2024-01-24T12:43:24.291Z,3.80
2024-01-24T12:45:53.252Z,3.22
2024-01-24T12:48:23.327Z,3.47
2024-01-24T12:50:51.887Z,4.88
2024-01-24T12:53:20.348Z,3.60
2024-01-24T12:55:47.264Z,2.75
2024-01-24T12:58:14.425Z,3.42
2024-01-24T13:00:41.602Z,2.88
2024-01-24T13:03:08.593Z,4.55
2024-01-24T13:05:42.695Z,4.13
2024-01-24T13:08:14.534Z,5.18
2024-01-24T13:10:46.513Z,6.03
2024-01-24T13:13:42.809Z,5.53
2024-01-24T13:16:10.148Z,4.28
2024-01-24T13:18:37.101Z,4.60
2024-01-24T13:21:04.646Z,5.88
2024-01-24T13:23:31.465Z,4.90
2024-01-24T13:25:59.019Z,5.75
2024-01-24T13:28:26.246Z,5.90
2024-01-24T13:30:53.378Z,5.18
2024-01-24T13:33:20.436Z,5.10
2024-01-24T13:35:47.745Z,6.47
2024-01-24T13:38:14.749Z,5.15
2024-01-24T13:40:41.666Z,5.03
2024-01-24T13:43:08.736Z,5.95
2024-01-24T13:45:38.605Z,5.72
2024-01-24T13:48:08.422Z,7.15
2024-01-24T13:50:41.240Z,6.57
2024-01-24T13:53:08.382Z,6.90
2024-01-24T13:55:35.446Z,6.72
2024-01-24T13:58:02.598Z,5.55
2024-01-24T14:00:29.563Z,6.03
2024-01-24T14:02:56.520Z,6.50
2024-01-24T14:05:23.491Z,6.90
2024-01-24T14:07:50.373Z,5.60
2024-01-24T14:10:23.468Z,5.53
2024-01-24T14:12:50.526Z,6.20
2024-01-24T14:15:27.734Z,7.97
2024-01-24T14:18:10.249Z,7.43
2024-01-24T14:20:37.297Z,5.63
2024-01-24T14:23:05.638Z,7.00
2024-01-24T14:25:32.588Z,5.78
2024-01-24T14:27:59.821Z,5.47
2024-01-24T14:30:27.228Z,6.38
2024-01-24T14:32:54.206Z,4.97
2024-01-24T14:35:21.351Z,6.22
2024-01-24T14:37:48.514Z,7.07
2024-01-24T14:40:16.696Z,5.82
2024-01-24T14:42:43.957Z,10.13
2024-01-24T14:45:11.058Z,4.97
2024-01-24T14:47:38.736Z,5.72
2024-01-24T14:50:07.227Z,7.00
2024-01-24T14:52:34.859Z,5.25
2024-01-24T14:55:05.536Z,8.43
2024-01-24T14:57:33.547Z,6.32
2024-01-24T15:00:02.318Z,6.85
2024-01-24T15:02:29.061Z,13.10
2024-01-24T15:04:56.552Z,8.77
2024-01-24T15:07:23.628Z,11.32
2024-01-24T15:09:50.931Z,8.57
2024-01-24T15:12:17.885Z,9.27
2024-01-24T15:14:44.724Z,11.90
2024-01-24T15:17:11.569Z,10.95
2024-01-24T15:19:41.386Z,12.43
2024-01-24T15:22:17.328Z,10.38
2024-01-24T15:24:45.218Z,7.10
2024-01-24T15:27:12.177Z,6.75
2024-01-24T15:29:40.187Z,11.02
2024-01-24T15:32:07.768Z,11.45
2024-01-24T15:34:34.836Z,5.45
2024-01-24T15:37:01.802Z,7.88
2024-01-24T15:39:28.992Z,7.53
2024-01-24T15:42:00.922Z,7.13
2024-01-24T15:44:28.772Z,5.85
2024-01-24T15:46:59.556Z,7.03
2024-01-24T15:49:26.492Z,6.95
2024-01-24T15:51:53.593Z,6.28
2024-01-24T15:54:20.934Z,7.47
2024-01-24T15:56:47.872Z,5.88
2024-01-24T15:59:14.886Z,8.82
2024-01-24T16:01:51.395Z,5.93
2024-01-24T16:04:19.033Z,5.60
2024-01-24T16:06:46.385Z,5.85
2024-01-24T16:09:13.663Z,6.70
2024-01-24T16:11:40.814Z,5.35
2024-01-24T16:14:08.956Z,6.32
2024-01-24T16:17:01.120Z,6.40
2024-01-24T16:22:36.357Z,6.15
2024-01-24T16:25:06.551Z,5.65
2024-01-24T16:28:26.387Z,5.57
2024-01-24T16:30:53.513Z,5.93
2024-01-24T16:33:20.617Z,5.97
2024-01-24T16:35:47.655Z,6.63
2024-01-24T16:38:14.920Z,6.57
2024-01-24T16:40:41.892Z,4.75
2024-01-24T16:43:09.065Z,6.57
2024-01-24T16:45:36.137Z,5.30
2024-01-24T16:48:03.183Z,5.20
2024-01-24T16:50:30.061Z,9.30
2024-01-24T16:52:57.015Z,8.77
2024-01-24T16:55:24.551Z,10.32
2024-01-24T16:57:51.515Z,6.93
2024-01-24T17:00:19.170Z,7.90
2024-01-24T17:02:50.443Z,5.85
2024-01-24T17:05:21.703Z,6.10
2024-01-24T17:07:48.718Z,5.63
2024-01-24T17:10:16.961Z,4.85
2024-01-24T17:12:44.033Z,4.28
2024-01-24T17:15:14.376Z,5.32
2024-01-24T17:17:42.042Z,5.22
2024-01-24T17:20:09.407Z,3.95
2024-01-24T17:22:36.873Z,4.68
2024-01-24T17:25:05.434Z,4.28
2024-01-24T17:27:32.372Z,6.25
2024-01-24T17:29:59.544Z,5.88
2024-01-24T17:32:26.691Z,5.22
2024-01-24T17:34:54.150Z,5.40
2024-01-24T17:37:21.529Z,5.07
2024-01-24T17:39:52.485Z,5.97
2024-01-24T17:42:20.932Z,5.40
2024-01-24T17:44:48.413Z,5.10
2024-01-24T17:47:15.680Z,6.72
2024-01-24T17:49:47.165Z,4.65
2024-01-24T17:52:14.705Z,5.68
2024-01-24T17:54:51.613Z,5.47
2024-01-24T17:57:19.355Z,6.15
2024-01-24T17:59:46.645Z,4.63
2024-01-24T18:02:14.995Z,5.32
2024-01-24T18:04:42.494Z,6.00
2024-01-24T18:07:11.063Z,5.97
2024-01-24T18:09:39.095Z,6.28
2024-01-24T18:12:06.540Z,5.03
2024-01-24T18:14:33.723Z,4.43
2024-01-24T18:17:00.824Z,4.68
2024-01-24T18:19:31.646Z,5.28
2024-01-24T18:21:59.406Z,3.45
2024-01-24T18:24:27.111Z,4.15
2024-01-24T18:26:54.686Z,3.75
2024-01-24T18:29:22.043Z,4.10
2024-01-24T18:31:49.166Z,4.90
2024-01-24T18:34:20.368Z,4.63
2024-01-24T18:36:47.561Z,4.40
2024-01-24T18:39:14.702Z,5.13
2024-01-24T18:42:57.438Z,3.95
2024-01-24T18:45:24.587Z,4.90
2024-01-24T18:47:54.903Z,5.13
2024-01-24T18:50:22.495Z,3.50
2024-01-24T18:52:50.885Z,5.32
2024-01-24T18:55:18.015Z,4.65
2024-01-24T18:57:45.949Z,4.53
2024-01-24T19:00:13.550Z,4.82
2024-01-24T19:02:40.691Z,4.57
2024-01-24T19:05:10.199Z,5.45
2024-01-24T19:07:41.200Z,6.47
2024-01-24T19:10:08.743Z,4.78
2024-01-24T19:12:35.898Z,4.60
2024-01-24T19:15:03.145Z,4.70
2024-01-24T19:17:30.280Z,5.70
2024-01-24T19:19:57.283Z,4.13
2024-01-24T19:22:24.272Z,5.75
2024-01-24T19:24:51.117Z,4.63
2024-01-24T19:27:18.614Z,4.88
2024-01-24T19:29:45.447Z,5.32
2024-01-24T19:32:14.333Z,4.22
2024-01-24T19:34:53.531Z,3.45
2024-01-24T19:37:20.473Z,5.30
2024-01-24T19:39:48.057Z,5.72
2024-01-24T19:42:17.524Z,4.85
2024-01-24T19:44:44.351Z,4.70
2024-01-24T19:47:11.283Z,5.03
2024-01-24T19:49:38.156Z,5.43
2024-01-24T19:52:05.816Z,5.20
2024-01-24T19:54:33.146Z,3.70
2024-01-24T19:56:59.900Z,6.47
2024-01-24T19:59:26.521Z,6.75
2024-01-24T20:01:53.547Z,6.63
2024-01-24T20:04:21.421Z,6.45
2024-01-24T20:06:48.302Z,12.00
2024-01-24T20:09:15.140Z,13.25
2024-01-24T20:11:41.917Z,7.97
2024-01-24T20:14:08.662Z,5.38
2024-01-24T20:16:35.672Z,4.70
2024-01-24T20:19:02.577Z,4.68
2024-01-24T20:21:29.973Z,4.40
2024-01-24T20:23:58.035Z,5.72
2024-01-24T20:26:25.658Z,5.13
2024-01-24T20:28:52.673Z,5.25
2024-01-24T20:31:19.277Z,4.47
2024-01-24T20:33:46.038Z,5.65
2024-01-24T20:36:13.296Z,5.47
2024-01-24T20:38:42.935Z,4.70
2024-01-24T20:41:10.962Z,4.32
2024-01-24T20:43:39.132Z,3.92
2024-01-24T20:46:08.160Z,4.32
2024-01-24T20:48:35.435Z,4.78
2024-01-24T20:51:03.270Z,5.18
2024-01-24T20:53:32.937Z,4.97
2024-01-24T20:55:59.776Z,5.07
2024-01-24T20:58:27.073Z,3.78
2024-01-24T21:00:54.560Z,5.60
2024-01-24T21:03:21.671Z,4.32
2024-01-24T21:05:48.672Z,5.20
2024-01-24T21:08:15.467Z,4.70
2024-01-24T21:10:48.612Z,3.50
2024-01-24T21:13:22.066Z,4.28
2024-01-24T21:15:49.097Z,4.32
2024-01-24T21:20:58.704Z,4.00
2024-01-24T21:23:26.977Z,4.20
2024-01-24T21:25:53.608Z,4.22
2024-01-24T21:28:20.309Z,4.38
2024-01-24T21:30:46.934Z,3.83
2024-01-24T21:33:13.704Z,4.28
2024-01-24T21:35:40.460Z,3.80
2024-01-24T21:38:07.173Z,5.10
2024-01-24T21:40:33.840Z,4.47
2024-01-24T21:43:00.498Z,4.55
2024-01-24T21:45:27.215Z,4.22
2024-01-24T21:47:55.498Z,4.03
2024-01-24T21:50:22.265Z,3.47
2024-01-24T21:52:48.902Z,4.60
2024-01-24T21:55:15.826Z,4.15
2024-01-24T21:57:46.923Z,3.78
2024-01-24T22:00:14.189Z,4.43
2024-01-24T22:02:40.879Z,4.10
2024-01-24T22:05:08.003Z,4.90
2024-01-24T22:07:35.513Z,4.82
2024-01-24T22:10:02.709Z,3.35
2024-01-24T22:12:29.520Z,4.70
2024-01-24T22:15:06.737Z,4.03
2024-01-24T22:17:35.444Z,4.75
2024-01-24T22:20:15.969Z,4.15
2024-01-24T22:23:12.595Z,4.00
2024-01-24T22:25:54.112Z,4.45
2024-01-24T22:28:20.912Z,5.43
2024-01-24T22:30:51.945Z,5.20
2024-01-24T22:33:21.263Z,4.25
2024-01-24T22:36:11.367Z,5.70
2024-01-24T22:38:49.732Z,4.22
2024-01-24T22:41:19.280Z,4.32
2024-01-24T22:48:05.079Z,4.40
2024-01-24T22:50:05.499Z,4.40
2024-01-24T22:55:20.222Z,4.40
2024-01-24T22:57:51.609Z,4.95
2024-01-24T23:00:28.503Z,4.68
2024-01-24T23:05:49.152Z,4.13
2024-01-24T23:08:17.806Z,5.47
2024-01-24T23:10:56.483Z,4.90
2024-01-24T23:13:25.448Z,5.10
2024-01-24T23:15:55.501Z,5.15
2024-01-24T23:18:23.640Z,4.47
2024-01-24T23:20:54.127Z,4.88
2024-01-24T23:23:23.194Z,5.20
2024-01-24T23:25:53.821Z,4.35
2024-01-24T23:28:25.920Z,4.38
2024-01-24T23:30:52.755Z,4.68
2024-01-24T23:33:19.587Z,4.40
2024-01-24T23:35:46.399Z,4.70
2024-01-24T23:38:13.080Z,4.90
2024-01-24T23:40:39.838Z,4.28
2024-01-24T23:43:06.685Z,5.25
2024-01-24T23:45:33.505Z,4.03
2024-01-24T23:48:00.482Z,3.55
2024-01-24T23:50:27.546Z,4.75
2024-01-24T23:52:58.267Z,4.97
2024-01-24T23:55:26.489Z,4.65
2024-01-24T23:57:54.558Z,4.47
